Aérodrome :
LOGIN :

S'inscrire | Disclaimer

   EN    FR    IT 

 










Légende :    VFR   VFR Marginal   IFR   IFR Intensif   IFR Très Intensif
Visi : 
Plafond : 
>= 8 km
>= 3000ft
5 à 8 km
1000 à 3000 ft
1500m à 5 km
500 à 1000 ft
800 à 1500m
200 à 500 ft
< 800m
< 200 ft
Symboles :   Orages  Brouillard  Fortes neiges  Fortes précipitations  Vent > 20 kt
SIGMETs :   Divers  Orages  Givrage  Turbulence  Onde Orograph.  Cendres Volcan.






- Altitude de l'aérodrome : 935 ft


EBFS - Florennes

METARs EXPIRÉS :
  • 090513Z AUTO VRB01KT 6000 BKN045/// M02/M03 Q1004 WHT
  • 091903Z AUTO 10004KT 0500 FG OVC001/// M02/M02 Q1005 RED
  • 091825Z AUTO 04004KT 2000 BR OVC002/// M02/M02 Q1005 AMB
  • 091755Z AUTO VRB02KT 2600 BR BKN002/// M02/M02 Q1005 AMB
  • 091725Z AUTO 09005KT 2100 BR BKN002/// M02/M03 Q1005 AMB
  • 091655Z AUTO 10004KT 3200 BR OVC002/// M02/M02 Q1005 AMB
  • 091625Z AUTO VRB02KT 2900 BR BKN002/// M02/M02 Q1005 AMB

TAF TAF EBFS
Valide du 09 à 13h jusqu'au 09 à 22h UTC


091141Z 0913/0922 VRB02KT 2000 BR BKN002 BKN004
TEMPO 0913/0914 0500 FZFG BKN001 BKN003
BECMG 0913/0915 3000 BR BKN004 BKN006
TEMPO 0915/0917 BKN007 BKN010
BECMG 0917/1919 0500 FZFG BKN001 BKN003



MET'MAP, la Météo Aéronautique d'un coup d'oeil ! - Copyright ORBIFLY Décembre 2007 - Disclaimer

ORBIFLY MET'MAP TEAM :

Programmation & Développement : Alexandra Zaïnal
Sur une idée originale de : Baudouin d'Aumeries
Soutien technique & logistique : Manuel Goepfert
Assistance : Marc-Olivier Méhu




SOURCES & CREDITS :

   NOAA